NJE238D LIMF-LFPB
Flight info
| Callsign | NJE238D |
|---|---|
| Flight time | 1h 13m |
| Altitude | 38000 |
| Route | KUKEV DCT MOLUS DCT UNKIR DCT DJL |
| Aircraft | E55P/M-SBDFGHJ2RWY/LB2 |
Departure
| Time | 2026-05-01 08:41 |
|---|---|
| Airport | Turin Airport (LIMF) |
Arrival
| Time | 2026-05-01 09:54 |
|---|---|
| Airport | Paris-Le Bourget International Airport (LFPB) |
| Time | Latitude | Longitude | Altitude | Speed | Heading |
|---|---|---|---|---|---|
| 2026-05-01 08:19 | 45.20424 | 7.64565 | 980 ft | 0 kts | 272° |
| 2026-05-01 08:35 | 45.20424 | 7.64564 | 980 ft | 0 kts | 273° |
| 2026-05-01 08:35 | 45.20424 | 7.64557 | 980 ft | 2 kts | 278° |
| 2026-05-01 08:36 | 45.20442 | 7.64555 | 981 ft | 5 kts | 44° |
| 2026-05-01 08:36 | 45.20455 | 7.64633 | 979 ft | 11 kts | 95° |
| 2026-05-01 08:36 | 45.20440 | 7.64717 | 978 ft | 9 kts | 170° |
| 2026-05-01 08:36 | 45.20374 | 7.64714 | 978 ft | 9 kts | 183° |
| 2026-05-01 08:37 | 45.20303 | 7.64708 | 976 ft | 11 kts | 183° |
| 2026-05-01 08:37 | 45.20215 | 7.64704 | 975 ft | 13 kts | 184° |
| 2026-05-01 08:37 | 45.20116 | 7.64697 | 973 ft | 15 kts | 183° |
| 2026-05-01 08:37 | 45.20006 | 7.64691 | 971 ft | 16 kts | 183° |
| 2026-05-01 08:38 | 45.19887 | 7.64683 | 969 ft | 17 kts | 184° |
| 2026-05-01 08:38 | 45.19761 | 7.64691 | 966 ft | 17 kts | 171° |
| 2026-05-01 08:38 | 45.19638 | 7.64691 | 964 ft | 18 kts | 182° |
| 2026-05-01 08:38 | 45.19538 | 7.64690 | 960 ft | 9 kts | 146° |
| 2026-05-01 08:39 | 45.19524 | 7.64780 | 958 ft | 8 kts | 91° |
| 2026-05-01 08:39 | 45.19523 | 7.64832 | 956 ft | 7 kts | 91° |
| 2026-05-01 08:39 | 45.19523 | 7.64863 | 955 ft | 8 kts | 92° |
| 2026-05-01 08:39 | 45.19532 | 7.64930 | 952 ft | 8 kts | 27° |
| 2026-05-01 08:40 | 45.19567 | 7.64934 | 953 ft | 11 kts | 4° |
| 2026-05-01 08:40 | 45.19913 | 7.64953 | 961 ft | 88 kts | 2° |
| 2026-05-01 08:40 | 45.20717 | 7.65013 | 1127 ft | 131 kts | 5° |
| 2026-05-01 08:41 | 45.21684 | 7.65061 | 1563 ft | 150 kts | 2° |
| 2026-05-01 08:41 | 45.22696 | 7.65074 | 2407 ft | 149 kts | 2° |
| 2026-05-01 08:41 | 45.23766 | 7.65070 | 3133 ft | 158 kts | 3° |
| 2026-05-01 08:41 | 45.24716 | 7.65124 | 4284 ft | 130 kts | 13° |
| 2026-05-01 08:42 | 45.25622 | 7.65686 | 4561 ft | 168 kts | 31° |
| 2026-05-01 08:42 | 45.26442 | 7.67147 | 4655 ft | 220 kts | 76° |
| 2026-05-01 08:42 | 45.26196 | 7.69254 | 5661 ft | 227 kts | 117° |
| 2026-05-01 08:42 | 45.25662 | 7.71380 | 6546 ft | 236 kts | 98° |
| 2026-05-01 08:43 | 45.25426 | 7.73695 | 7452 ft | 245 kts | 96° |
| 2026-05-01 08:43 | 45.25246 | 7.76117 | 8220 ft | 253 kts | 94° |
| 2026-05-01 08:43 | 45.25079 | 7.78643 | 8950 ft | 261 kts | 94° |
| 2026-05-01 08:43 | 45.24599 | 7.81097 | 9699 ft | 269 kts | 121° |
| 2026-05-01 08:44 | 45.23490 | 7.83208 | 10525 ft | 271 kts | 123° |
| 2026-05-01 08:44 | 45.22401 | 7.85396 | 11372 ft | 272 kts | 124° |
| 2026-05-01 08:44 | 45.21317 | 7.87560 | 12166 ft | 275 kts | 123° |
| 2026-05-01 08:44 | 45.20216 | 7.89754 | 12924 ft | 277 kts | 123° |
| 2026-05-01 08:45 | 45.19094 | 7.91996 | 13677 ft | 280 kts | 122° |
| 2026-05-01 08:45 | 45.17979 | 7.94216 | 14471 ft | 283 kts | 122° |
| 2026-05-01 08:45 | 45.16873 | 7.96542 | 15198 ft | 284 kts | 113° |
| 2026-05-01 08:45 | 45.16476 | 7.99290 | 15423 ft | 297 kts | 82° |
| 2026-05-01 08:46 | 45.17229 | 8.01981 | 15894 ft | 302 kts | 51° |
| 2026-05-01 08:46 | 45.18854 | 8.03764 | 16728 ft | 299 kts | 33° |
| 2026-05-01 08:46 | 45.20457 | 8.05612 | 17539 ft | 298 kts | 41° |
| 2026-05-01 08:46 | 45.22025 | 8.07513 | 18240 ft | 300 kts | 40° |
| 2026-05-01 08:47 | 45.23908 | 8.08836 | 18833 ft | 310 kts | 13° |
| 2026-05-01 08:47 | 45.26056 | 8.08587 | 19484 ft | 323 kts | 344° |
| 2026-05-01 08:47 | 45.27954 | 8.06784 | 20156 ft | 337 kts | 316° |
| 2026-05-01 08:47 | 45.29225 | 8.03969 | 20795 ft | 343 kts | 308° |
| 2026-05-01 08:48 | 45.30756 | 8.01398 | 21375 ft | 345 kts | 315° |
| 2026-05-01 08:48 | 45.32218 | 7.98660 | 21680 ft | 363 kts | 302° |
| 2026-05-01 08:48 | 45.32834 | 7.95870 | 21920 ft | 380 kts | 282° |
| 2026-05-01 08:50 | 45.32927 | 7.95001 | 21996 ft | 382 kts | 282° |
| 2026-05-01 08:50 | 45.33345 | 7.92173 | 22205 ft | 389 kts | 287° |
| 2026-05-01 08:50 | 45.33857 | 7.88912 | 22438 ft | 398 kts | 285° |
| 2026-05-01 08:50 | 45.34476 | 7.85089 | 22718 ft | 408 kts | 285° |
| 2026-05-01 08:51 | 45.35110 | 7.81108 | 22985 ft | 416 kts | 285° |
| 2026-05-01 08:51 | 45.35754 | 7.77105 | 23242 ft | 423 kts | 285° |
| 2026-05-01 08:51 | 45.36413 | 7.72972 | 23520 ft | 430 kts | 285° |
| 2026-05-01 08:51 | 45.37065 | 7.68862 | 24196 ft | 424 kts | 285° |
| 2026-05-01 08:52 | 45.37700 | 7.64884 | 25109 ft | 414 kts | 285° |
| 2026-05-01 08:52 | 45.38366 | 7.60879 | 25595 ft | 414 kts | 290° |
| 2026-05-01 08:52 | 45.39713 | 7.57329 | 25844 ft | 412 kts | 313° |
| 2026-05-01 08:52 | 45.41777 | 7.54511 | 26254 ft | 413 kts | 318° |
| 2026-05-01 08:53 | 45.43786 | 7.51611 | 26714 ft | 414 kts | 319° |
| 2026-05-01 08:53 | 45.45713 | 7.48583 | 27103 ft | 418 kts | 313° |
| 2026-05-01 08:53 | 45.47751 | 7.45643 | 27505 ft | 419 kts | 318° |
| 2026-05-01 08:53 | 45.49827 | 7.42676 | 27886 ft | 421 kts | 319° |
| 2026-05-01 08:54 | 45.51913 | 7.39732 | 28228 ft | 425 kts | 318° |
| 2026-05-01 08:54 | 45.54008 | 7.36778 | 28557 ft | 428 kts | 318° |
| 2026-05-01 08:54 | 45.56123 | 7.33789 | 28908 ft | 430 kts | 317° |
| 2026-05-01 08:54 | 45.58223 | 7.30819 | 29274 ft | 432 kts | 317° |
| 2026-05-01 08:55 | 45.60373 | 7.27774 | 29665 ft | 433 kts | 317° |
| 2026-05-01 08:55 | 45.62520 | 7.24733 | 30017 ft | 435 kts | 317° |
| 2026-05-01 08:55 | 45.64667 | 7.21724 | 30299 ft | 437 kts | 320° |
| 2026-05-01 08:55 | 45.67267 | 7.19436 | 30588 ft | 435 kts | 339° |
| 2026-05-01 08:56 | 45.70056 | 7.17651 | 31064 ft | 433 kts | 336° |
| 2026-05-01 08:56 | 45.72814 | 7.15846 | 31514 ft | 432 kts | 337° |
| 2026-05-01 08:56 | 45.75562 | 7.14036 | 31937 ft | 432 kts | 337° |
| 2026-05-01 08:56 | 45.78349 | 7.12195 | 32354 ft | 432 kts | 337° |
| 2026-05-01 08:57 | 45.81092 | 7.10381 | 32773 ft | 432 kts | 337° |
| 2026-05-01 08:57 | 45.83817 | 7.08577 | 33225 ft | 431 kts | 336° |
| 2026-05-01 08:57 | 45.86549 | 7.06764 | 33653 ft | 431 kts | 336° |
| 2026-05-01 08:57 | 45.89270 | 7.04961 | 34045 ft | 432 kts | 336° |
| 2026-05-01 08:58 | 45.92012 | 7.03139 | 34459 ft | 432 kts | 336° |
| 2026-05-01 08:58 | 45.94738 | 7.01323 | 34885 ft | 432 kts | 336° |
| 2026-05-01 08:58 | 45.97456 | 6.99516 | 35368 ft | 430 kts | 336° |
| 2026-05-01 08:58 | 46.00158 | 6.97715 | 35887 ft | 427 kts | 336° |
| 2026-05-01 08:59 | 46.02802 | 6.95953 | 36381 ft | 424 kts | 336° |
| 2026-05-01 08:59 | 46.05482 | 6.94161 | 36910 ft | 422 kts | 336° |
| 2026-05-01 08:59 | 46.08145 | 6.92381 | 37466 ft | 420 kts | 336° |
| 2026-05-01 08:59 | 46.10766 | 6.90623 | 37892 ft | 422 kts | 336° |
| 2026-05-01 09:00 | 46.13415 | 6.88849 | 38225 ft | 419 kts | 336° |
| 2026-05-01 09:00 | 46.16074 | 6.87063 | 38323 ft | 421 kts | 336° |
| 2026-05-01 09:00 | 46.21412 | 6.83482 | 38336 ft | 428 kts | 336° |
| 2026-05-01 09:01 | 46.26829 | 6.79834 | 38317 ft | 434 kts | 335° |
| 2026-05-01 09:01 | 46.32332 | 6.76117 | 38321 ft | 439 kts | 335° |
| 2026-05-01 09:02 | 46.37829 | 6.72396 | 38307 ft | 435 kts | 336° |
| 2026-05-01 09:02 | 46.43213 | 6.68597 | 38280 ft | 433 kts | 326° |
| 2026-05-01 09:03 | 46.45338 | 6.65526 | 38329 ft | 431 kts | 304° |
| 2026-05-01 09:03 | 46.46847 | 6.61820 | 38303 ft | 430 kts | 303° |
| 2026-05-01 09:03 | 46.48937 | 6.58753 | 38344 ft | 428 kts | 326° |
| 2026-05-01 09:03 | 46.51377 | 6.56309 | 38262 ft | 428 kts | 316° |
| 2026-05-01 09:04 | 46.53096 | 6.52846 | 38315 ft | 424 kts | 298° |
| 2026-05-01 09:04 | 46.54546 | 6.49171 | 38282 ft | 424 kts | 299° |
| 2026-05-01 09:04 | 46.57317 | 6.41609 | 38280 ft | 424 kts | 297° |
| 2026-05-01 09:05 | 46.60044 | 6.33969 | 38280 ft | 430 kts | 296° |
| 2026-05-01 09:05 | 46.62795 | 6.26211 | 38281 ft | 436 kts | 296° |
| 2026-05-01 09:06 | 46.65570 | 6.18364 | 38280 ft | 441 kts | 296° |
| 2026-05-01 09:06 | 46.68389 | 6.10367 | 38266 ft | 446 kts | 296° |
| 2026-05-01 09:07 | 46.71215 | 6.02333 | 38258 ft | 450 kts | 296° |
| 2026-05-01 09:07 | 46.74050 | 5.94242 | 38246 ft | 451 kts | 296° |
| 2026-05-01 09:08 | 46.76895 | 5.86102 | 38239 ft | 451 kts | 296° |
| 2026-05-01 09:08 | 46.79743 | 5.77930 | 38242 ft | 451 kts | 296° |
| 2026-05-01 09:09 | 46.83174 | 5.70409 | 38287 ft | 447 kts | 318° |
| 2026-05-01 09:09 | 46.87702 | 5.64292 | 38238 ft | 443 kts | 317° |
| 2026-05-01 09:10 | 46.92173 | 5.58159 | 38230 ft | 441 kts | 317° |
| 2026-05-01 09:10 | 46.96654 | 5.51994 | 38237 ft | 443 kts | 317° |
| 2026-05-01 09:11 | 47.01121 | 5.45837 | 38240 ft | 444 kts | 317° |
| 2026-05-01 09:11 | 47.05622 | 5.39613 | 38244 ft | 445 kts | 317° |
| 2026-05-01 09:12 | 47.10125 | 5.33375 | 38233 ft | 446 kts | 316° |
| 2026-05-01 09:12 | 47.14624 | 5.27125 | 38240 ft | 446 kts | 316° |
| 2026-05-01 09:13 | 47.19131 | 5.20848 | 38243 ft | 447 kts | 316° |
| 2026-05-01 09:13 | 47.23627 | 5.14572 | 38238 ft | 447 kts | 316° |
| 2026-05-01 09:14 | 47.28213 | 5.08415 | 38240 ft | 447 kts | 322° |
| 2026-05-01 09:14 | 47.33143 | 5.02882 | 38238 ft | 448 kts | 322° |
| 2026-05-01 09:15 | 47.38079 | 4.97288 | 38227 ft | 448 kts | 322° |
| 2026-05-01 09:15 | 47.43024 | 4.91667 | 38233 ft | 449 kts | 322° |
| 2026-05-01 09:16 | 47.47928 | 4.86080 | 38232 ft | 450 kts | 322° |
| 2026-05-01 09:17 | 47.55359 | 4.77586 | 38226 ft | 451 kts | 322° |
| 2026-05-01 09:17 | 47.62786 | 4.69066 | 38223 ft | 452 kts | 322° |
| 2026-05-01 09:18 | 47.65257 | 4.66229 | 37824 ft | 458 kts | 322° |
| 2026-05-01 09:18 | 47.70271 | 4.60452 | 36109 ft | 443 kts | 322° |
| 2026-05-01 09:19 | 47.75058 | 4.54927 | 34289 ft | 444 kts | 322° |
| 2026-05-01 09:19 | 47.77446 | 4.52159 | 33722 ft | 432 kts | 322° |
| 2026-05-01 09:19 | 47.79807 | 4.49421 | 32691 ft | 432 kts | 323° |
| 2026-05-01 09:20 | 47.84492 | 4.43985 | 30868 ft | 425 kts | 323° |
| 2026-05-01 09:20 | 47.89096 | 4.38638 | 29078 ft | 417 kts | 323° |
| 2026-05-01 09:21 | 47.93613 | 4.33375 | 27333 ft | 408 kts | 322° |
| 2026-05-01 09:21 | 47.95802 | 4.30823 | 26489 ft | 404 kts | 322° |
| 2026-05-01 09:21 | 48.00157 | 4.25726 | 24813 ft | 395 kts | 322° |
| 2026-05-01 09:22 | 48.04434 | 4.20714 | 23180 ft | 387 kts | 322° |
| 2026-05-01 09:22 | 48.08589 | 4.15834 | 21587 ft | 378 kts | 322° |
| 2026-05-01 09:23 | 48.10640 | 4.13422 | 20753 ft | 375 kts | 322° |
| 2026-05-01 09:23 | 48.14682 | 4.08664 | 19158 ft | 366 kts | 322° |
| 2026-05-01 09:24 | 48.18436 | 4.04237 | 17725 ft | 332 kts | 322° |
| 2026-05-01 09:24 | 48.20222 | 4.02127 | 17047 ft | 331 kts | 322° |
| 2026-05-01 09:24 | 48.23816 | 3.97870 | 15673 ft | 329 kts | 322° |
| 2026-05-01 09:25 | 48.27047 | 3.93321 | 14822 ft | 312 kts | 313° |
| 2026-05-01 09:25 | 48.30022 | 3.88621 | 13951 ft | 315 kts | 313° |
| 2026-05-01 09:26 | 48.31535 | 3.86234 | 13503 ft | 316 kts | 313° |
| 2026-05-01 09:26 | 48.34537 | 3.81493 | 12604 ft | 315 kts | 313° |
| 2026-05-01 09:26 | 48.36037 | 3.79119 | 12157 ft | 313 kts | 314° |
| 2026-05-01 09:27 | 48.38998 | 3.74429 | 11263 ft | 308 kts | 314° |
| 2026-05-01 09:27 | 48.40464 | 3.72104 | 10826 ft | 305 kts | 314° |
| 2026-05-01 09:27 | 48.41927 | 3.69785 | 10381 ft | 303 kts | 314° |
| 2026-05-01 09:28 | 48.43354 | 3.67517 | 9952 ft | 300 kts | 314° |
| 2026-05-01 09:28 | 48.44787 | 3.65242 | 9517 ft | 297 kts | 314° |
| 2026-05-01 09:28 | 48.46176 | 3.63034 | 9203 ft | 290 kts | 314° |
| 2026-05-01 09:28 | 48.47552 | 3.60846 | 8891 ft | 284 kts | 313° |
| 2026-05-01 09:29 | 48.50264 | 3.56524 | 8296 ft | 287 kts | 313° |
| 2026-05-01 09:29 | 48.51643 | 3.54324 | 7976 ft | 288 kts | 313° |
| 2026-05-01 09:30 | 48.54380 | 3.49950 | 7358 ft | 286 kts | 313° |
| 2026-05-01 09:30 | 48.55729 | 3.47792 | 7234 ft | 276 kts | 313° |
| 2026-05-01 09:30 | 48.58133 | 3.43650 | 7219 ft | 253 kts | 315° |
| 2026-05-01 09:31 | 48.59351 | 3.41793 | 7216 ft | 244 kts | 314° |
| 2026-05-01 09:31 | 48.60520 | 3.39968 | 7205 ft | 247 kts | 307° |
| 2026-05-01 09:31 | 48.61794 | 3.35156 | 7226 ft | 251 kts | 289° |
| 2026-05-01 09:32 | 48.62390 | 3.32562 | 7241 ft | 278 kts | 288° |
| 2026-05-01 09:32 | 48.63651 | 3.26994 | 7222 ft | 279 kts | 287° |
| 2026-05-01 09:32 | 48.64270 | 3.24240 | 7220 ft | 278 kts | 287° |
| 2026-05-01 09:33 | 48.64887 | 3.21484 | 7219 ft | 276 kts | 287° |
| 2026-05-01 09:33 | 48.65506 | 3.18717 | 7222 ft | 275 kts | 288° |
| 2026-05-01 09:33 | 48.66726 | 3.13260 | 7215 ft | 273 kts | 287° |
| 2026-05-01 09:34 | 48.67327 | 3.10568 | 7218 ft | 273 kts | 287° |
| 2026-05-01 09:34 | 48.67932 | 3.07841 | 7220 ft | 272 kts | 287° |
| 2026-05-01 09:34 | 48.69170 | 3.02265 | 7219 ft | 285 kts | 287° |
| 2026-05-01 09:35 | 48.69793 | 2.99451 | 7219 ft | 283 kts | 287° |
| 2026-05-01 09:35 | 48.71032 | 2.93851 | 7213 ft | 281 kts | 287° |
| 2026-05-01 09:35 | 48.71653 | 2.91038 | 7217 ft | 279 kts | 288° |
| 2026-05-01 09:36 | 48.72263 | 2.88276 | 7218 ft | 278 kts | 287° |
| 2026-05-01 09:36 | 48.72874 | 2.85496 | 7218 ft | 278 kts | 288° |
| 2026-05-01 09:36 | 48.73488 | 2.82705 | 7218 ft | 277 kts | 287° |
| 2026-05-01 09:36 | 48.74091 | 2.79965 | 7218 ft | 277 kts | 287° |
| 2026-05-01 09:37 | 48.74702 | 2.77179 | 7218 ft | 276 kts | 287° |
| 2026-05-01 09:37 | 48.75906 | 2.71680 | 7207 ft | 275 kts | 287° |
| 2026-05-01 09:37 | 48.76505 | 2.68940 | 7212 ft | 275 kts | 287° |
| 2026-05-01 09:38 | 48.77707 | 2.63426 | 7217 ft | 275 kts | 287° |
| 2026-05-01 09:38 | 48.78304 | 2.60686 | 7208 ft | 275 kts | 287° |
| 2026-05-01 09:38 | 48.78904 | 2.57916 | 7205 ft | 275 kts | 287° |
| 2026-05-01 09:39 | 48.80094 | 2.52430 | 7206 ft | 274 kts | 287° |
| 2026-05-01 09:39 | 48.80691 | 2.49670 | 7207 ft | 274 kts | 288° |
| 2026-05-01 09:39 | 48.81284 | 2.46913 | 7210 ft | 274 kts | 285° |
| 2026-05-01 09:40 | 48.81404 | 2.44085 | 7222 ft | 270 kts | 264° |
| 2026-05-01 09:40 | 48.81138 | 2.38395 | 7206 ft | 272 kts | 265° |
| 2026-05-01 09:40 | 48.81008 | 2.35524 | 7018 ft | 276 kts | 265° |
| 2026-05-01 09:41 | 48.80874 | 2.32576 | 6755 ft | 280 kts | 264° |
| 2026-05-01 09:41 | 48.80602 | 2.26680 | 6235 ft | 283 kts | 264° |
| 2026-05-01 09:41 | 48.80464 | 2.23721 | 5973 ft | 279 kts | 264° |
| 2026-05-01 09:42 | 48.80329 | 2.20807 | 5713 ft | 275 kts | 264° |
| 2026-05-01 09:42 | 48.80197 | 2.17952 | 5452 ft | 272 kts | 264° |
| 2026-05-01 09:42 | 48.80557 | 2.12567 | 4784 ft | 258 kts | 304° |
| 2026-05-01 09:43 | 48.83205 | 2.09164 | 4046 ft | 246 kts | 321° |
| 2026-05-01 09:43 | 48.84557 | 2.07575 | 3700 ft | 240 kts | 321° |
| 2026-05-01 09:43 | 48.85849 | 2.06060 | 3437 ft | 232 kts | 321° |
| 2026-05-01 09:44 | 48.88334 | 2.03153 | 3111 ft | 218 kts | 321° |
| 2026-05-01 09:44 | 48.89511 | 2.01779 | 3040 ft | 206 kts | 321° |
| 2026-05-01 09:44 | 48.90615 | 2.00496 | 2972 ft | 196 kts | 321° |
| 2026-05-01 09:45 | 48.91685 | 1.99255 | 2963 ft | 190 kts | 321° |
| 2026-05-01 09:45 | 48.93175 | 1.96209 | 2972 ft | 184 kts | 265° |
| 2026-05-01 09:45 | 48.92668 | 1.94483 | 2980 ft | 182 kts | 220° |
| 2026-05-01 09:46 | 48.91519 | 1.93835 | 2978 ft | 183 kts | 176° |
| 2026-05-01 09:46 | 48.90388 | 1.94659 | 2979 ft | 186 kts | 131° |
| 2026-05-01 09:46 | 48.89964 | 1.96472 | 2991 ft | 191 kts | 93° |
| 2026-05-01 09:46 | 48.89969 | 1.98509 | 2978 ft | 193 kts | 91° |
| 2026-05-01 09:47 | 48.89981 | 2.00550 | 2969 ft | 191 kts | 91° |
| 2026-05-01 09:47 | 48.89998 | 2.02551 | 2962 ft | 189 kts | 91° |
| 2026-05-01 09:47 | 48.90017 | 2.04520 | 2968 ft | 186 kts | 91° |
| 2026-05-01 09:47 | 48.90035 | 2.06492 | 2969 ft | 186 kts | 92° |
| 2026-05-01 09:48 | 48.90051 | 2.08457 | 2969 ft | 186 kts | 91° |
| 2026-05-01 09:48 | 48.90068 | 2.10402 | 2971 ft | 186 kts | 91° |
| 2026-05-01 09:48 | 48.90083 | 2.12364 | 2971 ft | 186 kts | 91° |
| 2026-05-01 09:48 | 48.90097 | 2.14346 | 2970 ft | 186 kts | 91° |
| 2026-05-01 09:49 | 48.90107 | 2.16296 | 2972 ft | 186 kts | 91° |
| 2026-05-01 09:49 | 48.90247 | 2.18269 | 2973 ft | 187 kts | 79° |
| 2026-05-01 09:49 | 48.90585 | 2.20150 | 3049 ft | 182 kts | 74° |
| 2026-05-01 09:49 | 48.90992 | 2.21932 | 2907 ft | 175 kts | 72° |
| 2026-05-01 09:50 | 48.91425 | 2.23644 | 2697 ft | 170 kts | 70° |
| 2026-05-01 09:50 | 48.91862 | 2.25299 | 2490 ft | 166 kts | 70° |
| 2026-05-01 09:50 | 48.92282 | 2.26858 | 2303 ft | 157 kts | 69° |
| 2026-05-01 09:50 | 48.92681 | 2.28340 | 2085 ft | 145 kts | 70° |
| 2026-05-01 09:51 | 48.93059 | 2.29733 | 1889 ft | 139 kts | 70° |
| 2026-05-01 09:51 | 48.93421 | 2.31074 | 1718 ft | 136 kts | 70° |
| 2026-05-01 09:51 | 48.93767 | 2.32349 | 1531 ft | 122 kts | 70° |
| 2026-05-01 09:51 | 48.94079 | 2.33507 | 1368 ft | 117 kts | 70° |
| 2026-05-01 09:52 | 48.94384 | 2.34637 | 1231 ft | 116 kts | 70° |
| 2026-05-01 09:52 | 48.94688 | 2.35765 | 1084 ft | 115 kts | 70° |
| 2026-05-01 09:52 | 48.94992 | 2.36891 | 930 ft | 115 kts | 69° |
| 2026-05-01 09:52 | 48.95296 | 2.38018 | 783 ft | 114 kts | 69° |
| 2026-05-01 09:53 | 48.95596 | 2.39127 | 639 ft | 115 kts | 69° |
| 2026-05-01 09:53 | 48.95902 | 2.40266 | 496 ft | 115 kts | 69° |
| 2026-05-01 09:53 | 48.96206 | 2.41386 | 343 ft | 114 kts | 68° |
| 2026-05-01 09:53 | 48.96506 | 2.42485 | 191 ft | 112 kts | 70° |
| 2026-05-01 09:54 | 48.96780 | 2.43515 | 163 ft | 95 kts | 68° |
| 2026-05-01 09:54 | 48.97007 | 2.44355 | 177 ft | 78 kts | 67° |
| 2026-05-01 09:54 | 48.97150 | 2.44893 | 186 ft | 39 kts | 67° |
| 2026-05-01 09:54 | 48.97245 | 2.45240 | 191 ft | 33 kts | 68° |
| 2026-05-01 09:55 | 48.97318 | 2.45513 | 195 ft | 21 kts | 67° |
| 2026-05-01 09:55 | 48.97368 | 2.45699 | 199 ft | 17 kts | 68° |
| 2026-05-01 09:55 | 48.97361 | 2.45852 | 200 ft | 13 kts | 139° |
| 2026-05-01 09:55 | 48.97269 | 2.45881 | 198 ft | 14 kts | 205° |
| 2026-05-01 09:56 | 48.97201 | 2.45804 | 196 ft | 11 kts | 242° |
| 2026-05-01 09:56 | 48.97167 | 2.45674 | 193 ft | 14 kts | 247° |
| 2026-05-01 09:56 | 48.97127 | 2.45522 | 192 ft | 16 kts | 248° |
| 2026-05-01 09:56 | 48.97082 | 2.45356 | 188 ft | 18 kts | 248° |
| 2026-05-01 09:57 | 48.97033 | 2.45173 | 187 ft | 19 kts | 247° |
| 2026-05-01 09:57 | 48.96990 | 2.45015 | 183 ft | 11 kts | 233° |
| 2026-05-01 09:57 | 48.96912 | 2.45010 | 181 ft | 12 kts | 165° |
| 2026-05-01 09:57 | 48.96817 | 2.45047 | 179 ft | 14 kts | 168° |
| 2026-05-01 09:58 | 48.96711 | 2.45079 | 177 ft | 16 kts | 167° |
| 2026-05-01 09:58 | 48.96596 | 2.45117 | 175 ft | 17 kts | 169° |
| 2026-05-01 09:58 | 48.96495 | 2.45025 | 173 ft | 18 kts | 253° |
| 2026-05-01 09:58 | 48.96469 | 2.44854 | 170 ft | 17 kts | 255° |
| 2026-05-01 09:59 | 48.96429 | 2.44687 | 169 ft | 14 kts | 229° |
| 2026-05-01 09:59 | 48.96360 | 2.44555 | 165 ft | 17 kts | 233° |
| 2026-05-01 09:59 | 48.96305 | 2.44489 | 163 ft | 8 kts | 206° |
| 2026-05-01 09:59 | 48.96243 | 2.44445 | 161 ft | 9 kts | 202° |
| 2026-05-01 10:00 | 48.96202 | 2.44491 | 161 ft | 8 kts | 113° |
| 2026-05-01 10:00 | 48.96180 | 2.44565 | 162 ft | 5 kts | 108° |
| 2026-05-01 10:00 | 48.96185 | 2.44611 | 163 ft | 3 kts | 72° |
| 2026-05-01 10:00 | 48.96198 | 2.44618 | 163 ft | 1 kts | 321° |
| 2026-05-01 10:01 | 48.96202 | 2.44601 | 163 ft | 0 kts | 295° |
| 2026-05-01 10:01 | 48.96202 | 2.44600 | 163 ft | 0 kts | 295° |